»·PEaware :: SWA3193 KPHX-KPDX

SWA3193 :: KPHX-KPDX

FLIGHT INFORMATION

Flight Status: Arrived
Operator:
Southwest Airlines
More flights by this operator :: More flights under this callsign
Pilot: Anonymous 34646 (34646)
Aircraft: BOEING 737-700
(B737)
More flights by this aircraft type
Origin: KPHX Phoenix Sky Harbor Intl
United States
Destination: KPDX Portland Intl
United States
More flights between these airports :: More routes between these airports
Route: QUAKY1 GCN WINEN ELY NEERO IMB JOTBA HHOOD4
File this flight plan on PilotEdge
Remarks: RMK / SIMBRIEF
Altitude:
(Current/Filed)
38,000ft
Speed:
(Current/Filed)
452kts
Departed: 08-Jun-21 06:48 PM
Arrived: 08-Jun-21 09:05 PM
Distance/Time
Traveled:
877nm/2:17
Distance/Time
To Go:
Arrived

Flight Plot

Page will automatically refresh every two minutes.

Flight plan parsing failed; only flown route is shown


Map Options




Map Legend


Flown Route
Filed Route
Departure Airport
Arrival Airport
Navaid (VOR, NDB)
Fix

Horizontal Profiles

Position Reports

Time Latitude Longitude Heading Altitude Ground
Speed
08-Jun-21 18:21 33.434052 -111.994969 89 1143ft 0kts
08-Jun-21 18:22 33.434052 -111.994969 89 1143ft 0kts
08-Jun-21 18:23 33.434052 -111.994969 89 1143ft 0kts
08-Jun-21 18:24 33.434052 -111.994969 89 1143ft 0kts
08-Jun-21 18:25 33.434052 -111.994969 89 1143ft 0kts
08-Jun-21 18:26 33.434052 -111.994969 89 1143ft 0kts
08-Jun-21 18:27 33.434052 -111.994969 89 1143ft 0kts
08-Jun-21 18:28 33.434052 -111.994969 89 1143ft 0kts
08-Jun-21 18:29 33.434052 -111.994969 89 1143ft 0kts
08-Jun-21 18:30 33.434052 -111.994969 89 1143ft 0kts
08-Jun-21 18:31 33.434052 -111.994969 89 1143ft 0kts
08-Jun-21 18:32 33.434052 -111.994969 89 1143ft 0kts
08-Jun-21 18:33 33.434052 -111.994969 89 1143ft 0kts
08-Jun-21 18:34 33.434052 -111.994969 89 1143ft 0kts
08-Jun-21 18:35 33.434052 -111.994969 89 1143ft 0kts
08-Jun-21 18:36 33.434052 -111.994969 89 1143ft 0kts
08-Jun-21 18:37 33.434052 -111.995043 89 1143ft 2kts
08-Jun-21 18:38 33.434050 -111.995696 89 1143ft 0kts
08-Jun-21 18:39 33.434050 -111.995696 89 1143ft 0kts
08-Jun-21 18:40 33.434050 -111.995696 89 1143ft 0kts
08-Jun-21 18:41 33.434050 -111.995696 89 1143ft 0kts
08-Jun-21 18:42 33.433774 -111.995390 175 1143ft 5kts
08-Jun-21 18:43 33.432135 -111.995384 111 1143ft 7kts
08-Jun-21 18:44 33.432057 -111.993660 157 1143ft 0kts
08-Jun-21 18:45 33.432056 -111.993659 157 1143ft 0kts
08-Jun-21 18:46 33.431602 -111.993586 182 1143ft 10kts
08-Jun-21 18:47 33.431034 -112.001896 269 1143ft 99kts
08-Jun-21 18:48 33.430552 -112.052623 273 2741ft 173kts
08-Jun-21 18:49 33.433443 -112.120484 269 4895ft 217kts
08-Jun-21 18:50 33.445785 -112.192226 315 7625ft 257kts
08-Jun-21 18:51 33.519377 -112.197223 6 10710ft 286kts
08-Jun-21 18:52 33.602427 -112.173628 20 12899ft 343kts
08-Jun-21 18:53 33.679129 -112.090927 48 14927ft 390kts
08-Jun-21 18:54 33.760560 -112.002268 23 17658ft 406kts
08-Jun-21 18:55 33.872752 -111.976393 5 20081ft 421kts
08-Jun-21 18:56 33.991133 -111.954610 5 22245ft 438kts
08-Jun-21 18:57 34.113559 -111.937958 354 24154ft 446kts
08-Jun-21 18:58 34.238068 -111.951642 349 25942ft 455kts
08-Jun-21 18:59 34.365241 -111.965830 350 27605ft 464kts
08-Jun-21 19:00 34.495447 -111.980198 350 29055ft 475kts
08-Jun-21 19:01 34.628385 -111.994921 349 30387ft 484kts
08-Jun-21 19:02 34.763782 -112.009967 349 31541ft 492kts
08-Jun-21 19:04 34.900010 -112.025309 349 33060ft 490kts
08-Jun-21 19:05 35.035403 -112.040612 348 34470ft 487kts
08-Jun-21 19:06 35.169425 -112.055722 348 35874ft 482kts
08-Jun-21 19:07 35.302556 -112.070876 347 37106ft 477kts
08-Jun-21 19:08 35.434398 -112.084872 348 38158ft 474kts
08-Jun-21 19:09 35.566255 -112.098459 347 38277ft 472kts
08-Jun-21 19:10 35.697030 -112.114291 347 38263ft 474kts
08-Jun-21 19:11 35.828422 -112.130135 347 38252ft 474kts
08-Jun-21 19:12 35.957919 -112.152377 335 38249ft 462kts
08-Jun-21 19:13 36.071673 -112.220015 323 38245ft 450kts
08-Jun-21 19:14 36.181618 -112.294178 324 38231ft 451kts
08-Jun-21 19:15 36.292209 -112.368493 324 38209ft 452kts
08-Jun-21 19:16 36.402300 -112.442418 323 38192ft 450kts
08-Jun-21 19:17 36.512748 -112.517045 323 38165ft 452kts
08-Jun-21 19:18 36.623215 -112.591962 323 38156ft 452kts
08-Jun-21 19:19 36.733767 -112.667193 323 38146ft 453kts
08-Jun-21 19:20 36.844034 -112.742479 323 38142ft 453kts
08-Jun-21 19:21 36.954841 -112.818386 323 38144ft 454kts
08-Jun-21 19:22 37.065821 -112.894667 323 38148ft 455kts
08-Jun-21 19:23 37.176577 -112.971049 323 38149ft 455kts
08-Jun-21 19:24 37.287573 -113.047858 323 38133ft 455kts
08-Jun-21 19:25 37.398626 -113.124968 323 38107ft 456kts
08-Jun-21 19:26 37.509414 -113.202157 323 38109ft 456kts
08-Jun-21 19:26 37.601990 -113.266862 323 38118ft 456kts
08-Jun-21 19:28 37.731553 -113.357478 322 38115ft 457kts
08-Jun-21 19:29 37.842557 -113.435789 322 38102ft 457kts
08-Jun-21 19:30 37.951590 -113.516718 316 38090ft 450kts
08-Jun-21 19:31 38.050628 -113.612965 314 38085ft 448kts
08-Jun-21 19:31 38.133124 -113.693612 314 38085ft 448kts
08-Jun-21 19:32 38.232170 -113.790000 314 38079ft 449kts
08-Jun-21 19:33 38.331086 -113.886151 314 38076ft 448kts
08-Jun-21 19:35 38.446528 -113.999144 314 38066ft 448kts
08-Jun-21 19:36 38.545831 -114.096792 313 38048ft 450kts
08-Jun-21 19:36 38.628351 -114.178218 313 38052ft 450kts
08-Jun-21 19:37 38.727592 -114.276462 313 38054ft 451kts
08-Jun-21 19:38 38.827043 -114.375271 313 38055ft 452kts
08-Jun-21 19:39 38.926746 -114.474694 313 38054ft 453kts
08-Jun-21 19:40 39.026301 -114.574342 313 38059ft 455kts
08-Jun-21 19:41 39.126161 -114.674314 313 38065ft 455kts
08-Jun-21 19:42 39.225784 -114.775010 313 38068ft 455kts
08-Jun-21 19:43 39.323913 -114.877442 308 38071ft 450kts
08-Jun-21 19:44 39.414851 -114.987967 308 38066ft 450kts
08-Jun-21 19:45 39.506711 -115.099193 308 38055ft 451kts
08-Jun-21 19:46 39.598453 -115.209593 308 38040ft 452kts
08-Jun-21 19:47 39.690753 -115.321033 308 38016ft 453kts
08-Jun-21 19:48 39.782695 -115.432771 308 37999ft 453kts
08-Jun-21 19:49 39.874805 -115.545203 308 37989ft 454kts
08-Jun-21 19:50 39.966607 -115.657715 308 37983ft 454kts
08-Jun-21 19:51 40.058826 -115.771162 308 37975ft 455kts
08-Jun-21 19:52 40.150722 -115.884652 308 37968ft 455kts
08-Jun-21 19:53 40.242566 -115.998538 308 37957ft 455kts
08-Jun-21 19:54 40.334443 -116.112896 308 37942ft 455kts
08-Jun-21 19:55 40.426228 -116.227601 307 37936ft 456kts
08-Jun-21 19:56 40.517826 -116.342528 307 37935ft 457kts
08-Jun-21 19:57 40.609597 -116.458150 307 37936ft 456kts
08-Jun-21 19:58 40.701124 -116.573893 307 37938ft 457kts
08-Jun-21 19:59 40.792904 -116.690439 307 37939ft 458kts
08-Jun-21 20:00 40.884462 -116.807175 306 37937ft 458kts
08-Jun-21 20:01 40.976531 -116.925047 306 37940ft 460kts
08-Jun-21 20:02 41.068389 -117.043121 306 37944ft 460kts
08-Jun-21 20:03 41.160163 -117.161597 306 37947ft 461kts
08-Jun-21 20:04 41.252082 -117.280716 306 37949ft 461kts
08-Jun-21 20:05 41.343713 -117.399985 306 37949ft 462kts
08-Jun-21 20:06 41.435441 -117.519857 306 37949ft 463kts
08-Jun-21 20:07 41.527573 -117.640774 306 37948ft 463kts
08-Jun-21 20:08 41.619733 -117.761760 306 37948ft 465kts
08-Jun-21 20:09 41.711283 -117.883096 306 37948ft 465kts
08-Jun-21 20:10 41.804924 -118.003983 313 37946ft 475kts
08-Jun-21 20:11 41.925249 -118.086521 329 37943ft 492kts
08-Jun-21 20:12 42.051068 -118.158076 329 37943ft 492kts
08-Jun-21 20:13 42.177144 -118.230075 329 37941ft 494kts
08-Jun-21 20:14 42.303640 -118.302532 328 37966ft 494kts
08-Jun-21 20:15 42.430519 -118.375741 328 37991ft 494kts
08-Jun-21 20:16 42.556970 -118.449067 328 37998ft 496kts
08-Jun-21 20:17 42.684100 -118.523130 328 37998ft 498kts
08-Jun-21 20:18 42.811744 -118.597826 328 37999ft 499kts
08-Jun-21 20:19 42.939351 -118.672839 327 37999ft 500kts
08-Jun-21 20:20 43.067499 -118.748508 327 38002ft 502kts
08-Jun-21 20:21 43.195961 -118.824716 327 38012ft 503kts
08-Jun-21 20:22 43.324412 -118.901265 327 38011ft 504kts
08-Jun-21 20:23 43.452974 -118.978237 327 38011ft 505kts
08-Jun-21 20:24 43.581750 -119.055695 327 38010ft 505kts
08-Jun-21 20:25 43.710993 -119.133801 327 38014ft 506kts
08-Jun-21 20:26 43.839556 -119.211866 327 38026ft 507kts
08-Jun-21 20:27 43.968704 -119.290655 327 38041ft 507kts
08-Jun-21 20:28 44.098638 -119.370311 328 38061ft 510kts
08-Jun-21 20:29 44.228468 -119.450278 328 38072ft 511kts
08-Jun-21 20:30 44.358556 -119.530756 328 38079ft 511kts
08-Jun-21 20:31 44.488501 -119.611410 327 38087ft 511kts
08-Jun-21 20:32 44.617333 -119.693886 322 38085ft 504kts
08-Jun-21 20:33 44.719306 -119.818651 300 38084ft 479kts
08-Jun-21 20:34 44.808099 -119.958721 301 38083ft 480kts
08-Jun-21 20:35 44.898087 -120.098720 302 38083ft 483kts
08-Jun-21 20:36 44.988671 -120.238874 302 37661ft 483kts
08-Jun-21 20:37 45.077994 -120.379427 301 35564ft 480kts
08-Jun-21 20:38 45.165105 -120.521721 294 32434ft 471kts
08-Jun-21 20:39 45.228266 -120.678874 286 29617ft 449kts
08-Jun-21 20:40 45.287531 -120.832160 287 27172ft 436kts
08-Jun-21 20:41 45.344485 -120.981953 288 24758ft 426kts
08-Jun-21 20:42 45.400149 -121.128509 290 22367ft 419kts
08-Jun-21 20:43 45.443875 -121.277583 278 19999ft 399kts
08-Jun-21 20:44 45.472140 -121.423800 279 18608ft 358kts
08-Jun-21 20:45 45.499590 -121.561890 280 16463ft 364kts
08-Jun-21 20:46 45.526059 -121.698025 278 14928ft 321kts
08-Jun-21 20:47 45.533440 -121.818076 268 13919ft 296kts
08-Jun-21 20:48 45.537272 -121.931397 269 12775ft 289kts
08-Jun-21 20:49 45.555946 -122.042791 283 11615ft 287kts
08-Jun-21 20:50 45.578610 -122.150487 284 10476ft 285kts
08-Jun-21 20:51 45.600122 -122.254592 284 9410ft 274kts
08-Jun-21 20:52 45.621237 -122.357013 285 8294ft 263kts
08-Jun-21 20:53 45.641468 -122.455255 287 7252ft 249kts
08-Jun-21 20:54 45.671342 -122.542125 296 6264ft 238kts
08-Jun-21 20:55 45.700515 -122.623057 296 5331ft 221kts
08-Jun-21 20:56 45.728473 -122.699900 296 4214ft 217kts
08-Jun-21 20:57 45.756189 -122.776364 296 3083ft 214kts
08-Jun-21 20:58 45.746911 -122.845913 208 3009ft 216kts
08-Jun-21 20:59 45.693150 -122.850940 126 2446ft 218kts
08-Jun-21 21:00 45.666810 -122.780913 118 2034ft 175kts
08-Jun-21 21:01 45.643262 -122.720089 119 1940ft 176kts
08-Jun-21 21:02 45.622129 -122.665777 118 1119ft 142kts
08-Jun-21 21:03 45.603139 -122.616805 118 403ft 139kts
08-Jun-21 21:04 45.587261 -122.576409 140 38ft 21kts
08-Jun-21 21:05 45.586960 -122.578725 298 38ft 12kts
08-Jun-21 21:06 45.589138 -122.584294 300 38ft 25kts
08-Jun-21 21:07 45.592044 -122.591815 297 38ft 14kts
08-Jun-21 21:08 45.592210 -122.595296 219 38ft 2kts
08-Jun-21 21:09 45.591889 -122.596029 241 38ft 0kts
08-Jun-21 21:10 45.591889 -122.596029 241 38ft 0kts
08-Jun-21 21:11 45.591889 -122.596029 241 38ft 0kts
08-Jun-21 21:12 45.591889 -122.596029 241 38ft 0kts
08-Jun-21 21:13 45.591889 -122.596029 241 38ft 0kts
08-Jun-21 21:14 45.591889 -122.596029 241 38ft 0kts

Navigation Log

Ident Type
Flight plan parsing failed, navigation log unavailable